createdAt,value
2018-03-15T00:01:55.795Z,30.90
2018-03-15T00:04:32.780Z,29.10
2018-03-15T00:07:03.833Z,30.92
2018-03-15T00:09:34.834Z,30.40
2018-03-15T00:12:05.869Z,29.50
2018-03-15T00:14:36.907Z,32.42
2018-03-15T00:17:07.888Z,31.80
2018-03-15T00:19:38.879Z,28.97
2018-03-15T00:22:09.901Z,32.40
2018-03-15T00:24:40.932Z,30.67
2018-03-15T00:27:11.954Z,28.95
2018-03-15T00:29:42.955Z,34.50
2018-03-15T00:32:13.933Z,31.67
2018-03-15T00:34:44.916Z,36.13
2018-03-15T00:37:15.928Z,33.33
2018-03-15T00:39:46.930Z,36.60
2018-03-15T00:42:17.928Z,38.80
2018-03-15T00:44:48.954Z,40.60
2018-03-15T00:47:19.965Z,35.28
2018-03-15T00:49:50.931Z,37.38
2018-03-15T00:52:21.914Z,37.23
2018-03-15T00:54:52.933Z,34.87
2018-03-15T00:57:23.966Z,36.17
2018-03-15T00:59:54.935Z,44.38
2018-03-15T01:02:26.001Z,42.43
2018-03-15T01:04:57.009Z,44.28
2018-03-15T01:07:28.024Z,44.03
2018-03-15T01:09:59.045Z,41.13
2018-03-15T01:12:30.051Z,38.20
2018-03-15T01:15:01.071Z,40.23
2018-03-15T01:17:32.086Z,42.22
2018-03-15T01:20:03.104Z,38.90
2018-03-15T01:22:34.104Z,47.17
2018-03-15T01:25:05.077Z,43.43
2018-03-15T01:27:36.069Z,45.27
2018-03-15T01:30:07.046Z,49.87
2018-03-15T01:32:38.030Z,48.13
2018-03-15T01:35:09.032Z,44.70
2018-03-15T01:37:39.978Z,44.45
2018-03-15T01:40:11.045Z,47.90
2018-03-15T01:42:42.049Z,52.53
2018-03-15T01:45:13.085Z,44.88
2018-03-15T01:47:44.076Z,55.45
2018-03-15T01:50:15.084Z,52.00
2018-03-15T01:52:46.093Z,50.20
2018-03-15T01:55:17.078Z,53.27
2018-03-15T01:57:48.070Z,54.70
2018-03-15T02:00:19.047Z,54.27
2018-03-15T02:02:50.048Z,53.10
2018-03-15T02:05:21.092Z,50.20
2018-03-15T02:07:52.093Z,53.08
2018-03-15T02:10:23.102Z,55.70
2018-03-15T02:12:54.096Z,61.40
2018-03-15T02:15:25.082Z,58.43
2018-03-15T02:17:56.072Z,62.10
2018-03-15T02:20:27.065Z,60.10
2018-03-15T02:22:58.059Z,60.73
2018-03-15T02:25:29.036Z,62.47
2018-03-15T02:28:00.038Z,59.87
2018-03-15T02:30:31.042Z,57.33
2018-03-15T02:33:02.032Z,55.70
2018-03-15T02:35:33.028Z,56.73
2018-03-15T02:38:04.002Z,57.80
2018-03-15T02:40:35.046Z,61.17
2018-03-15T02:43:06.045Z,64.00
2018-03-15T02:45:37.042Z,60.63
2018-03-15T02:48:14.883Z,58.67
2018-03-15T02:50:45.902Z,67.70
2018-03-15T02:53:16.901Z,67.90
2018-03-15T02:55:47.890Z,81.23
2018-03-15T02:58:18.884Z,75.50
2018-03-15T03:00:49.906Z,89.27
2018-03-15T03:03:20.874Z,82.30
2018-03-15T03:05:52.274Z,70.97
2018-03-15T03:08:23.284Z,75.37
2018-03-15T03:10:54.337Z,84.70
2018-03-15T03:13:25.331Z,72.75
2018-03-15T03:15:56.340Z,78.83
2018-03-15T03:18:27.299Z,62.13
2018-03-15T03:20:58.309Z,59.57
2018-03-15T03:23:29.315Z,58.27
2018-03-15T03:26:00.321Z,61.57
2018-03-15T03:28:31.335Z,66.70
2018-03-15T03:31:02.358Z,59.50
2018-03-15T03:33:33.365Z,59.25
2018-03-15T03:36:04.347Z,58.08
2018-03-15T03:38:35.374Z,58.43
2018-03-15T03:41:06.393Z,61.95
2018-03-15T03:43:37.376Z,56.47
2018-03-15T03:46:08.389Z,67.77
2018-03-15T03:48:39.392Z,59.22
2018-03-15T03:51:10.358Z,59.38
2018-03-15T03:53:41.354Z,56.90
2018-03-15T03:56:12.305Z,61.00
2018-03-15T03:58:43.273Z,62.60
2018-03-15T04:01:14.250Z,56.90
2018-03-15T04:03:45.244Z,59.00
2018-03-15T04:06:16.259Z,59.63
2018-03-15T04:08:47.281Z,57.88
2018-03-15T04:11:18.277Z,62.10
2018-03-15T04:13:49.306Z,62.93
2018-03-15T04:16:20.274Z,74.50
2018-03-15T04:18:51.314Z,77.70
2018-03-15T04:21:22.321Z,72.18
2018-03-15T04:23:53.324Z,66.80
2018-03-15T04:26:24.314Z,72.77
2018-03-15T04:28:55.315Z,64.83
2018-03-15T04:31:26.319Z,67.20
2018-03-15T04:33:57.297Z,61.97
2018-03-15T04:36:28.261Z,67.17
2018-03-15T04:38:59.246Z,62.53
2018-03-15T04:41:30.304Z,64.30
2018-03-15T04:44:01.311Z,67.73
2018-03-15T04:46:32.310Z,73.03
2018-03-15T04:49:03.303Z,73.50
2018-03-15T04:51:34.305Z,81.23
2018-03-15T04:54:05.283Z,70.53
2018-03-15T04:56:36.272Z,72.77
2018-03-15T04:59:07.258Z,71.30
2018-03-15T05:01:38.283Z,65.33
2018-03-15T05:04:09.294Z,74.00
2018-03-15T05:06:40.293Z,59.37
2018-03-15T05:09:11.268Z,62.83
2018-03-15T05:11:42.310Z,60.27
2018-03-15T05:14:13.279Z,59.90
2018-03-15T05:16:44.286Z,58.87
2018-03-15T05:19:15.269Z,59.43
2018-03-15T05:21:46.265Z,53.37
2018-03-15T05:24:17.265Z,52.37
2018-03-15T05:26:48.265Z,45.70
2018-03-15T05:29:19.253Z,48.43
2018-03-15T05:31:50.283Z,53.00
2018-03-15T05:34:21.309Z,47.87
2018-03-15T05:36:52.280Z,45.57
2018-03-15T05:39:23.305Z,43.47
2018-03-15T05:41:54.300Z,43.17
2018-03-15T05:44:25.339Z,43.13
2018-03-15T05:46:56.332Z,40.77
2018-03-15T05:49:27.355Z,38.83
2018-03-15T05:51:58.355Z,39.97
2018-03-15T05:54:29.317Z,40.63
2018-03-15T05:57:00.271Z,44.20
2018-03-15T05:59:31.264Z,38.53
2018-03-15T06:02:02.424Z,42.30
2018-03-15T06:04:33.398Z,40.33
2018-03-15T06:07:04.378Z,40.77
2018-03-15T06:09:35.412Z,37.10
2018-03-15T06:12:06.413Z,38.53
2018-03-15T06:14:37.374Z,38.07
2018-03-15T06:17:08.334Z,35.50
2018-03-15T06:19:39.300Z,37.37
2018-03-15T06:22:10.282Z,36.57
2018-03-15T06:24:41.284Z,39.30
2018-03-15T06:27:12.259Z,38.77
2018-03-15T06:29:43.224Z,34.27
2018-03-15T06:32:14.210Z,33.50
2018-03-15T06:34:45.240Z,31.90
2018-03-15T06:37:16.245Z,32.90
2018-03-15T06:39:47.219Z,37.30
2018-03-15T06:42:18.209Z,34.23
2018-03-15T06:44:49.214Z,30.60
2018-03-15T06:47:20.202Z,31.77
2018-03-15T06:49:51.175Z,31.67
2018-03-15T06:52:22.184Z,34.20
2018-03-15T06:54:53.161Z,34.93
2018-03-15T06:57:24.156Z,32.23
2018-03-15T06:59:55.138Z,33.73
2018-03-15T07:02:26.099Z,31.77
2018-03-15T07:04:57.086Z,33.40
2018-03-15T07:07:28.053Z,32.30
2018-03-15T07:09:59.074Z,32.17
2018-03-15T07:12:30.077Z,31.90
2018-03-15T07:15:01.087Z,31.90
2018-03-15T07:17:32.116Z,32.87
2018-03-15T07:20:03.145Z,34.20
2018-03-15T07:22:34.147Z,35.10
2018-03-15T07:25:05.101Z,33.83
2018-03-15T07:27:36.126Z,32.03
2018-03-15T07:30:07.133Z,32.63
2018-03-15T07:32:38.211Z,29.63
2018-03-15T07:35:09.204Z,28.53
2018-03-15T07:37:40.276Z,27.00
2018-03-15T07:40:11.264Z,29.37
2018-03-15T07:42:42.256Z,28.73
2018-03-15T07:45:13.264Z,26.93
2018-03-15T07:47:44.275Z,26.67
2018-03-15T07:50:15.284Z,27.27
2018-03-15T07:52:46.295Z,26.17
2018-03-15T07:55:17.300Z,24.93
2018-03-15T07:57:48.365Z,23.03
2018-03-15T08:00:19.407Z,22.10
2018-03-15T08:02:50.396Z,21.00
2018-03-15T08:05:21.403Z,22.20
2018-03-15T08:07:52.398Z,20.83
2018-03-15T08:10:23.437Z,21.50
2018-03-15T08:12:54.396Z,22.50
2018-03-15T08:15:25.339Z,20.53
2018-03-15T08:17:56.351Z,21.50
2018-03-15T08:20:27.335Z,19.87
2018-03-15T08:22:58.331Z,18.77
2018-03-15T08:25:29.305Z,19.00
2018-03-15T08:28:00.332Z,19.17
2018-03-15T08:30:31.315Z,19.17
2018-03-15T08:33:02.365Z,18.37
2018-03-15T08:35:33.381Z,18.80
2018-03-15T08:38:05.222Z,17.80
2018-03-15T08:40:36.229Z,60.00
2018-03-15T08:43:07.267Z,19.17
2018-03-15T08:45:38.298Z,18.27
2018-03-15T08:48:09.337Z,18.33
2018-03-15T08:50:40.374Z,17.30
2018-03-15T08:53:11.386Z,17.20
2018-03-15T08:55:42.408Z,17.63
2018-03-15T08:58:13.350Z,17.30
2018-03-15T09:00:44.373Z,16.87
2018-03-15T09:03:15.381Z,17.57
2018-03-15T09:05:46.390Z,17.43
2018-03-15T09:08:17.450Z,18.93
2018-03-15T09:10:48.461Z,16.97
2018-03-15T09:13:19.470Z,17.60
2018-03-15T09:15:50.478Z,16.53
2018-03-15T09:18:21.466Z,16.17
2018-03-15T09:20:52.520Z,16.73
2018-03-15T09:23:23.553Z,17.23
2018-03-15T09:25:54.550Z,16.27
2018-03-15T09:28:25.566Z,16.07
2018-03-15T09:30:56.566Z,16.07
2018-03-15T09:33:27.607Z,16.43
2018-03-15T09:35:58.601Z,15.60
2018-03-15T09:38:29.628Z,15.33
2018-03-15T09:41:00.638Z,14.27
2018-03-15T09:43:31.598Z,16.50
2018-03-15T09:46:02.735Z,15.87
2018-03-15T09:48:33.704Z,14.63
2018-03-15T09:51:04.717Z,16.33
2018-03-15T09:53:35.821Z,15.90
2018-03-15T09:56:06.846Z,15.17
2018-03-15T09:58:37.837Z,15.33
2018-03-15T10:01:08.901Z,15.63
2018-03-15T10:03:39.906Z,15.77
2018-03-15T10:06:10.940Z,16.10
2018-03-15T10:08:41.940Z,15.53
2018-03-15T10:11:13.003Z,14.30
2018-03-15T10:13:43.974Z,15.13
2018-03-15T10:16:15.018Z,14.77
2018-03-15T10:18:46.056Z,14.93
2018-03-15T10:21:17.068Z,16.10
2018-03-15T10:23:48.102Z,15.63
2018-03-15T10:26:19.153Z,15.10
2018-03-15T10:28:50.179Z,14.33
2018-03-15T10:31:21.140Z,14.47
2018-03-15T10:33:52.159Z,14.93
2018-03-15T10:36:23.143Z,15.13
2018-03-15T10:38:54.143Z,15.83
2018-03-15T10:41:25.152Z,14.63
2018-03-15T10:43:56.137Z,15.60
2018-03-15T10:46:27.131Z,15.03
2018-03-15T10:48:58.143Z,14.90
2018-03-15T10:51:29.140Z,15.50
2018-03-15T10:54:00.158Z,15.27
2018-03-15T10:56:31.178Z,15.50
2018-03-15T10:59:02.218Z,14.53
2018-03-15T11:01:39.432Z,14.47
2018-03-15T11:04:10.467Z,14.10
2018-03-15T11:06:41.493Z,14.53
2018-03-15T11:09:13.393Z,14.23
2018-03-15T11:11:44.429Z,13.90
2018-03-15T11:14:15.450Z,14.50
2018-03-15T11:16:46.475Z,13.70
2018-03-15T11:19:18.319Z,12.57
2018-03-15T11:21:49.347Z,13.23
2018-03-15T11:24:20.324Z,12.07
2018-03-15T11:26:51.286Z,12.70
2018-03-15T11:29:22.298Z,11.33
2018-03-15T11:31:53.299Z,11.20
2018-03-15T11:34:24.402Z,12.37
2018-03-15T11:36:55.365Z,11.23
2018-03-15T11:39:26.375Z,11.37
2018-03-15T11:41:57.357Z,10.80
2018-03-15T11:44:28.393Z,11.03
2018-03-15T11:46:59.323Z,9.67
2018-03-15T11:49:30.336Z,10.47
2018-03-15T11:52:01.337Z,9.70
2018-03-15T11:54:32.355Z,10.40
2018-03-15T11:57:03.355Z,12.50
2018-03-15T11:59:34.362Z,10.20
2018-03-15T12:02:05.413Z,10.07
2018-03-15T12:04:36.419Z,10.13
2018-03-15T12:07:07.443Z,10.83
2018-03-15T12:09:38.418Z,8.43
2018-03-15T12:12:09.395Z,10.10
2018-03-15T12:14:40.383Z,9.37
2018-03-15T12:17:11.426Z,8.77
2018-03-15T12:19:42.403Z,9.80
2018-03-15T12:22:13.442Z,8.53
2018-03-15T12:24:44.433Z,9.10
2018-03-15T12:27:15.449Z,9.20
2018-03-15T12:29:46.484Z,8.73
2018-03-15T12:32:17.443Z,8.63
2018-03-15T12:34:48.424Z,9.13
2018-03-15T12:37:19.380Z,9.07
2018-03-15T12:39:50.375Z,9.17
2018-03-15T12:42:21.377Z,8.17
2018-03-15T12:44:59.460Z,9.20
2018-03-15T12:47:30.459Z,8.37
2018-03-15T12:50:01.471Z,8.63
2018-03-15T12:52:32.424Z,8.43
2018-03-15T12:55:03.430Z,8.90
2018-03-15T12:57:34.412Z,9.00
2018-03-15T13:00:05.438Z,8.23
2018-03-15T13:02:36.437Z,9.60
2018-03-15T13:05:07.421Z,8.53
2018-03-15T13:07:38.426Z,7.77
2018-03-15T13:10:09.375Z,7.93
2018-03-15T13:12:40.376Z,7.17
2018-03-15T13:15:11.336Z,8.27
2018-03-15T13:17:42.371Z,7.90
2018-03-15T13:20:13.340Z,8.23
2018-03-15T13:22:44.382Z,6.93
2018-03-15T13:25:15.386Z,7.50
2018-03-15T13:27:46.372Z,7.83
2018-03-15T13:30:17.430Z,6.83
2018-03-15T13:32:48.359Z,8.57
2018-03-15T13:35:19.458Z,8.13
2018-03-15T13:37:50.597Z,7.67
2018-03-15T13:40:21.609Z,8.03
2018-03-15T13:42:52.612Z,7.80
2018-03-15T13:45:23.584Z,6.67
2018-03-15T13:47:54.613Z,6.50
2018-03-15T13:50:25.566Z,6.87
2018-03-15T13:52:56.576Z,6.87
2018-03-15T13:55:27.549Z,6.87
2018-03-15T13:57:58.554Z,6.23
2018-03-15T14:00:29.549Z,7.23
2018-03-15T14:03:00.531Z,7.47
2018-03-15T14:05:31.567Z,6.17
2018-03-15T14:08:02.605Z,7.47
2018-03-15T14:10:33.614Z,6.33
2018-03-15T14:13:04.663Z,5.57
2018-03-15T14:15:35.719Z,6.40
2018-03-15T14:18:06.673Z,6.07
2018-03-15T14:20:37.674Z,5.07
2018-03-15T14:23:08.671Z,4.93
2018-03-15T14:25:39.627Z,5.70
2018-03-15T14:28:10.644Z,6.73
2018-03-15T14:30:41.636Z,5.47
2018-03-15T14:33:12.606Z,5.60
2018-03-15T14:35:43.586Z,5.57
2018-03-15T14:38:14.563Z,7.07
2018-03-15T14:40:45.645Z,6.20
2018-03-15T14:43:16.632Z,6.73
2018-03-15T14:45:47.613Z,5.67
2018-03-15T14:48:18.591Z,6.10
2018-03-15T14:50:49.586Z,6.60
2018-03-15T14:53:20.559Z,6.27
2018-03-15T14:55:51.589Z,7.10
2018-03-15T14:58:22.574Z,6.03
2018-03-15T15:00:53.571Z,7.40
2018-03-15T15:03:24.604Z,6.47
2018-03-15T15:05:55.596Z,7.23
2018-03-15T15:08:26.602Z,6.53
2018-03-15T15:10:57.568Z,7.10
2018-03-15T15:13:28.544Z,6.70
2018-03-15T15:15:59.521Z,8.27
2018-03-15T15:18:30.505Z,6.93
2018-03-15T15:21:01.484Z,6.57
2018-03-15T15:23:32.508Z,7.23
2018-03-15T15:26:03.527Z,7.07
2018-03-15T15:28:34.484Z,6.87
2018-03-15T15:31:05.467Z,8.13
2018-03-15T15:33:36.478Z,6.53
2018-03-15T15:36:07.526Z,6.67
2018-03-15T15:38:38.516Z,6.77
2018-03-15T15:41:09.543Z,6.07
2018-03-15T15:43:40.468Z,6.87
2018-03-15T15:46:11.456Z,6.27
2018-03-15T15:48:42.501Z,9.17
2018-03-15T15:51:13.494Z,6.90
2018-03-15T15:53:44.471Z,7.73
2018-03-15T15:56:15.409Z,6.37
2018-03-15T15:58:46.471Z,6.30
2018-03-15T16:01:17.473Z,7.03
2018-03-15T16:03:48.441Z,10.03
2018-03-15T16:06:19.437Z,5.77
2018-03-15T16:08:50.453Z,5.13
2018-03-15T16:11:21.417Z,5.23
2018-03-15T16:13:52.422Z,5.90
2018-03-15T16:16:23.419Z,8.33
2018-03-15T16:18:54.415Z,5.47
2018-03-15T16:21:25.430Z,5.90
2018-03-15T16:23:56.458Z,5.50
2018-03-15T16:26:27.441Z,5.97
2018-03-15T16:28:58.488Z,6.67
2018-03-15T16:31:29.475Z,5.93
2018-03-15T16:34:00.495Z,7.50
2018-03-15T16:36:31.458Z,5.93
2018-03-15T16:39:02.448Z,5.53
2018-03-15T16:41:33.475Z,7.07
2018-03-15T16:44:04.506Z,6.37
2018-03-15T16:46:35.484Z,6.30
2018-03-15T16:49:06.497Z,6.27
2018-03-15T16:51:37.448Z,6.47
2018-03-15T16:54:08.408Z,6.30
2018-03-15T16:56:39.403Z,6.53
2018-03-15T16:59:10.401Z,6.07
2018-03-15T17:01:41.361Z,5.83
2018-03-15T17:04:12.341Z,6.13
2018-03-15T17:06:43.796Z,7.03
2018-03-15T17:09:14.848Z,6.60
2018-03-15T17:11:45.848Z,7.00
2018-03-15T17:14:16.819Z,6.27
2018-03-15T17:16:47.822Z,6.57
2018-03-15T17:19:18.862Z,6.27
2018-03-15T17:21:49.851Z,6.83
2018-03-15T17:24:20.905Z,6.27
2018-03-15T17:26:51.916Z,6.50
2018-03-15T17:29:22.989Z,7.33
2018-03-15T17:31:53.973Z,6.83
2018-03-15T17:34:25.064Z,7.13
2018-03-15T17:36:56.056Z,6.80
2018-03-15T17:39:27.018Z,7.13
2018-03-15T17:41:58.026Z,6.67
2018-03-15T17:44:29.009Z,8.60
2018-03-15T17:47:00.026Z,6.90
2018-03-15T17:49:31.024Z,7.67
2018-03-15T17:52:02.028Z,7.20
2018-03-15T17:54:33.063Z,9.27
2018-03-15T17:57:04.053Z,8.47
2018-03-15T17:59:35.024Z,6.77
2018-03-15T18:02:06.046Z,7.47
2018-03-15T18:04:37.036Z,7.20
2018-03-15T18:07:08.039Z,10.03
2018-03-15T18:09:39.074Z,7.13
2018-03-15T18:12:10.057Z,8.37
2018-03-15T18:14:41.105Z,7.77
2018-03-15T18:17:12.106Z,10.47
2018-03-15T18:19:43.118Z,7.97
2018-03-15T18:22:14.152Z,8.83
2018-03-15T18:24:45.139Z,8.47
2018-03-15T18:27:16.165Z,9.03
2018-03-15T18:29:47.316Z,9.60
2018-03-15T18:32:18.318Z,10.03
2018-03-15T18:34:49.307Z,10.10
2018-03-15T18:37:20.300Z,10.37
2018-03-15T18:39:51.304Z,10.80
2018-03-15T18:42:22.336Z,10.93
2018-03-15T18:44:53.325Z,10.67
2018-03-15T18:47:24.372Z,10.97
2018-03-15T18:49:55.396Z,10.90
2018-03-15T18:52:26.397Z,10.73
2018-03-15T18:54:57.416Z,10.73
2018-03-15T18:57:28.453Z,11.27
2018-03-15T18:59:59.463Z,12.90
2018-03-15T19:02:30.491Z,11.43
2018-03-15T19:05:01.496Z,11.50
2018-03-15T19:07:32.481Z,12.57
2018-03-15T19:10:03.526Z,11.73
2018-03-15T19:12:34.548Z,12.17
2018-03-15T19:15:05.552Z,12.10
2018-03-15T19:17:36.571Z,11.73
2018-03-15T19:20:07.577Z,13.20
2018-03-15T19:22:38.531Z,12.47
2018-03-15T19:25:09.504Z,12.83
2018-03-15T19:27:40.477Z,11.93
2018-03-15T19:30:11.509Z,12.87
2018-03-15T19:32:42.518Z,14.07
2018-03-15T19:35:13.530Z,12.03
2018-03-15T19:37:44.507Z,13.50
2018-03-15T19:40:15.565Z,12.80
2018-03-15T19:42:46.523Z,13.17
2018-03-15T19:45:18.104Z,12.60
2018-03-15T19:47:49.107Z,12.73
2018-03-15T19:50:20.103Z,11.73
2018-03-15T19:52:51.128Z,14.23
2018-03-15T19:55:22.984Z,12.33
2018-03-15T19:57:54.224Z,13.07
2018-03-15T20:00:25.278Z,11.93
2018-03-15T20:02:56.317Z,13.53
2018-03-15T20:05:27.308Z,12.53
2018-03-15T20:07:59.121Z,12.83
2018-03-15T20:10:30.150Z,13.10
2018-03-15T20:13:01.125Z,12.03
2018-03-15T20:15:38.293Z,13.30
2018-03-15T20:18:09.271Z,12.20
2018-03-15T20:20:40.286Z,13.40
2018-03-15T20:23:17.259Z,11.50
2018-03-15T20:25:48.272Z,12.13
2018-03-15T20:28:25.250Z,13.20
2018-03-15T20:30:56.285Z,12.40
2018-03-15T20:33:33.380Z,11.77
2018-03-15T20:36:04.428Z,13.30
2018-03-15T20:38:35.409Z,12.97
2018-03-15T20:41:12.560Z,12.67
2018-03-15T20:43:43.578Z,13.47
2018-03-15T20:46:20.607Z,12.33
2018-03-15T20:48:57.652Z,12.70
2018-03-15T20:54:23.507Z,12.83
2018-03-15T20:56:54.530Z,12.23
2018-03-15T20:59:25.536Z,12.67
2018-03-15T21:01:56.532Z,13.07
2018-03-15T21:04:27.481Z,14.00
2018-03-15T21:06:58.458Z,14.07
2018-03-15T21:09:29.420Z,14.90
2018-03-15T21:12:06.408Z,12.90
2018-03-15T21:14:37.392Z,12.87
2018-03-15T21:17:08.333Z,12.87
2018-03-15T21:19:39.297Z,13.17
2018-03-15T21:22:10.278Z,13.30
2018-03-15T21:24:41.218Z,13.33
2018-03-15T21:27:12.234Z,12.50
2018-03-15T21:29:43.182Z,13.33
2018-03-15T21:32:14.158Z,13.83
2018-03-15T21:34:45.101Z,13.37
2018-03-15T21:37:16.090Z,14.10
2018-03-15T21:39:47.037Z,13.97
2018-03-15T21:42:17.983Z,14.20
2018-03-15T21:44:48.957Z,15.10
2018-03-15T21:47:19.929Z,14.73
2018-03-15T21:49:50.909Z,13.87
2018-03-15T21:52:21.856Z,14.03
2018-03-15T21:54:52.842Z,13.40
2018-03-15T21:57:23.798Z,14.63
2018-03-15T21:59:54.754Z,15.27
2018-03-15T22:02:25.693Z,14.80
2018-03-15T22:04:56.703Z,14.60
2018-03-15T22:07:27.614Z,13.80
2018-03-15T22:09:58.573Z,13.73
2018-03-15T22:12:29.571Z,15.83
2018-03-15T22:15:00.518Z,16.10
2018-03-15T22:17:31.463Z,14.63
2018-03-15T22:20:02.446Z,15.80
2018-03-15T22:22:33.394Z,16.03
2018-03-15T22:25:04.405Z,15.17
2018-03-15T22:27:35.352Z,15.93
2018-03-15T22:30:06.322Z,15.60
2018-03-15T22:32:37.262Z,16.47
2018-03-15T22:35:08.248Z,15.57
2018-03-15T22:37:39.214Z,17.07
2018-03-15T22:40:10.168Z,15.77
2018-03-15T22:42:41.125Z,15.93
2018-03-15T22:45:12.090Z,16.27
2018-03-15T22:47:43.058Z,15.47
2018-03-15T22:50:14.023Z,18.23
2018-03-15T22:52:44.982Z,16.93
2018-03-15T22:55:15.945Z,17.40
2018-03-15T22:57:46.889Z,17.50
2018-03-15T23:00:17.854Z,17.80
2018-03-15T23:02:48.821Z,20.23
2018-03-15T23:05:19.766Z,19.47
2018-03-15T23:07:50.726Z,20.00
2018-03-15T23:10:21.677Z,19.57
2018-03-15T23:12:52.639Z,18.87
2018-03-15T23:15:23.593Z,20.93
2018-03-15T23:17:54.545Z,21.30
2018-03-15T23:20:25.490Z,19.50
2018-03-15T23:22:56.454Z,20.70
2018-03-15T23:25:27.401Z,21.20
2018-03-15T23:27:58.346Z,19.97
2018-03-15T23:30:29.317Z,20.70
2018-03-15T23:33:00.257Z,18.90
2018-03-15T23:35:31.229Z,21.27
2018-03-15T23:38:02.179Z,20.13
2018-03-15T23:40:33.166Z,19.97
2018-03-15T23:43:04.106Z,19.33
2018-03-15T23:45:35.094Z,20.13
2018-03-15T23:48:06.026Z,19.43
2018-03-15T23:50:36.992Z,19.20
2018-03-15T23:53:07.982Z,18.93
2018-03-15T23:55:38.932Z,17.97
2018-03-15T23:58:09.914Z,19.03
